Time;durP1;ratioP1;P1;durP2;ratioP2;P2;SDS_P1;SDS_P2;PMS_P1;PMS_P2;Temp;Humidity;BMP_temperature;BMP_pressure;BME280_temperature;BME280_humidity;BME280_pressure;Samples;Min_cycle;Max_cycle;Signal;HPM_P1;HPM_P2
2020/12/21 00:01:47;;;;;;;12.40;11.07;;;;;;;4.89;65.59;96075.63;4970065;28;20497;-72
2020/12/21 00:04:12;;;;;;;12.45;11.13;;;;;;;5.04;65.36;96091.66;4968939;28;20077;-71
2020/12/21 00:06:38;;;;;;;14.50;11.60;;;;;;;5.00;65.13;96085.25;4970870;28;20649;-71
2020/12/21 00:09:03;;;;;;;13.77;12.25;;;;;;;5.03;65.45;96087.44;4971166;28;20400;-71
2020/12/21 00:11:39;;;;;;;12.98;11.63;;;;;;;5.02;65.03;96072.66;4970216;28;20045;-73
2020/12/21 00:14:06;;;;;;;14.13;12.60;;;;;;;4.98;65.47;96076.81;4970354;28;20531;-72
2020/12/21 00:16:36;;;;;;;12.88;11.15;;;;;;;4.92;65.51;96069.88;4970434;28;20445;-71
2020/12/21 00:19:02;;;;;;;12.13;10.90;;;;;;;4.52;65.67;95993.75;4970116;28;20421;-72
2020/12/21 00:21:27;;;;;;;12.52;11.20;;;;;;;5.03;65.60;96066.31;4971776;28;20041;-72
2020/12/21 00:23:52;;;;;;;12.32;11.13;;;;;;;5.00;65.76;96068.66;4970015;28;20050;-72
2020/12/21 00:26:18;;;;;;;12.13;10.93;;;;;;;5.00;65.76;96058.91;4970055;28;20115;-70
2020/12/21 00:28:43;;;;;;;11.95;10.68;;;;;;;5.06;66.00;96065.81;4969760;28;20374;-70
2020/12/21 00:31:08;;;;;;;12.20;11.02;;;;;;;5.20;65.84;96072.31;4969517;28;20035;-71
2020/12/21 00:33:33;;;;;;;12.43;11.18;;;;;;;5.14;65.75;96060.13;4968584;28;20444;-71
2020/12/21 00:35:59;;;;;;;11.40;10.25;;;;;;;5.23;65.91;96055.22;4971971;28;20039;-72
2020/12/21 00:38:24;;;;;;;12.18;10.35;;;;;;;5.24;66.31;96063.94;4968561;28;20070;-71
2020/12/21 00:40:49;;;;;;;11.27;10.13;;;;;;;5.29;66.17;96062.13;4970150;28;20098;-71
2020/12/21 00:43:15;;;;;;;12.18;10.88;;;;;;;5.35;65.72;96076.19;4969789;28;20035;-71
2020/12/21 00:45:40;;;;;;;12.30;10.93;;;;;;;5.28;65.74;96049.22;4970001;28;20038;-71
2020/12/21 00:48:05;;;;;;;11.63;10.43;;;;;;;5.38;65.61;96062.50;4971903;28;20042;-71
2020/12/21 00:50:31;;;;;;;11.93;10.73;;;;;;;5.45;66.09;96063.09;4969696;28;20093;-71
2020/12/21 00:52:56;;;;;;;10.80;9.80;;;;;;;5.61;65.79;96085.94;4969789;28;20039;-71
2020/12/21 00:55:21;;;;;;;11.50;10.30;;;;;;;5.51;66.01;96079.78;4970232;28;20089;-71
2020/12/21 00:57:46;;;;;;;11.40;10.32;;;;;;;5.49;65.91;96085.31;4969804;28;20089;-71
2020/12/21 01:00:12;;;;;;;10.63;9.55;;;;;;;5.55;65.81;96089.59;4970360;28;20400;-71
2020/12/21 01:02:38;;;;;;;11.75;10.63;;;;;;;5.60;65.66;96080.94;4969633;28;20181;-71
2020/12/21 01:05:04;;;;;;;11.98;10.82;;;;;;;5.57;65.96;96087.47;4969961;28;20046;-71
2020/12/21 01:07:29;;;;;;;10.77;9.75;;;;;;;5.57;66.03;96090.13;4969931;28;20425;-71
2020/12/21 01:09:54;;;;;;;10.73;9.73;;;;;;;5.73;66.12;96097.16;4969354;28;20062;-71
2020/12/21 01:12:19;;;;;;;10.60;9.60;;;;;;;5.69;65.68;96090.00;4971258;28;20027;-71
2020/12/21 01:14:45;;;;;;;10.75;9.73;;;;;;;5.70;66.07;96097.66;4969619;28;20066;-71
2020/12/21 01:17:10;;;;;;;10.85;9.80;;;;;;;5.64;65.91;96100.50;4969515;28;20039;-72
2020/12/21 01:19:36;;;;;;;12.77;11.48;;;;;;;5.64;66.10;96106.56;4969463;28;20035;-70
2020/12/21 01:22:01;;;;;;;11.25;10.15;;;;;;;5.59;66.32;96095.97;4969275;28;20034;-73
2020/12/21 01:24:26;;;;;;;11.57;10.40;;;;;;;5.67;66.67;96113.19;4969788;28;20027;-72
2020/12/21 01:26:52;;;;;;;10.15;9.25;;;;;;;5.67;66.30;96108.69;4968192;28;20066;-71
2020/12/21 01:29:17;;;;;;;11.02;9.85;;;;;;;5.76;65.67;96124.91;4969238;28;20193;-71
2020/12/21 01:31:43;;;;;;;10.77;9.68;;;;;;;5.81;66.23;96129.44;4967676;28;20043;-71
2020/12/21 01:34:08;;;;;;;11.00;9.80;;;;;;;5.84;65.66;96110.47;4968049;28;20034;-71
2020/12/21 01:36:34;;;;;;;11.73;10.63;;;;;;;5.92;66.40;96120.59;4969427;28;20124;-71
2020/12/21 01:38:59;;;;;;;12.05;10.90;;;;;;;6.01;65.46;96124.38;4971211;28;20054;-71
2020/12/21 01:41:24;;;;;;;10.90;9.88;;;;;;;6.08;65.83;96119.69;4973946;28;20039;-70
2020/12/21 01:43:55;;;;;;;10.57;9.52;;;;;;;6.07;65.41;96115.44;4992480;28;20034;-70
2020/12/21 01:46:21;;;;;;;11.48;10.27;;;;;;;6.15;65.52;96116.84;4992195;28;20031;-71
2020/12/21 01:48:47;;;;;;;11.05;10.00;;;;;;;6.05;65.47;96107.00;4990035;28;20372;-71
2020/12/21 01:51:39;;;;;;;10.65;9.63;;;;;;;6.09;65.72;96116.00;4973275;28;20484;-70
2020/12/21 01:54:05;;;;;;;11.02;9.93;;;;;;;6.04;65.33;96108.03;4991554;28;20042;-71
2020/12/21 01:56:31;;;;;;;10.48;9.38;;;;;;;6.08;65.64;96106.47;4976006;28;20054;-71
2020/12/21 01:58:57;;;;;;;11.85;10.68;;;;;;;5.95;65.75;96094.50;4972536;28;20031;-71
2020/12/21 02:01:24;;;;;;;11.75;10.55;;;;;;;6.01;65.54;96110.38;4972436;28;20038;-73
2020/12/21 02:03:50;;;;;;;10.70;9.70;;;;;;;6.11;65.99;96108.63;4975343;28;20045;-72
2020/12/21 02:06:16;;;;;;;16.52;10.02;;;;;;;6.10;66.01;96120.25;4993886;28;20412;-71
2020/12/21 02:08:42;;;;;;;10.38;9.35;;;;;;;6.03;65.99;96105.63;4991658;28;20046;-71
2020/12/21 02:11:07;;;;;;;10.52;9.52;;;;;;;6.12;65.71;96119.97;4977392;28;20184;-71
2020/12/21 02:13:32;;;;;;;10.90;9.80;;;;;;;6.04;66.34;96108.03;4979359;28;20526;-71
2020/12/21 02:16:00;;;;;;;11.00;9.85;;;;;;;6.02;66.25;96104.84;4990318;28;20066;-71
2020/12/21 02:18:26;;;;;;;11.25;10.07;;;;;;;6.07;66.40;96112.00;4992107;28;20061;-71
2020/12/21 02:20:51;;;;;;;11.77;10.60;;;;;;;6.01;65.77;96099.81;4991634;28;20550;-71
2020/12/21 02:23:16;;;;;;;10.43;9.52;;;;;;;6.14;65.96;96128.44;4990036;28;20052;-71
2020/12/21 02:25:42;;;;;;;11.80;10.60;;;;;;;6.05;66.15;96104.34;4982527;28;20046;-70
2020/12/21 02:28:07;;;;;;;10.27;9.27;;;;;;;6.12;66.09;96120.78;4975882;28;20065;-70
2020/12/21 02:30:33;;;;;;;10.20;9.20;;;;;;;6.21;66.37;96115.84;4991008;28;20037;-70
2020/12/21 02:32:58;;;;;;;11.25;9.63;;;;;;;6.25;66.45;96117.72;4973626;28;20097;-70
2020/12/21 02:35:23;;;;;;;10.35;9.35;;;;;;;6.15;66.03;96093.06;4972105;28;20050;-70
2020/12/21 02:37:49;;;;;;;10.43;9.43;;;;;;;6.23;66.46;96101.31;4982280;28;20030;-71
2020/12/21 02:40:14;;;;;;;10.48;9.48;;;;;;;6.13;66.25;96085.38;4985223;28;20039;-69
2020/12/21 02:42:39;;;;;;;9.60;8.70;;;;;;;6.28;66.18;96105.84;4972611;28;20050;-70
2020/12/21 02:45:05;;;;;;;11.70;10.52;;;;;;;6.25;66.65;96087.88;4991854;28;20127;-71
2020/12/21 02:47:30;;;;;;;11.23;10.13;;;;;;;6.30;67.07;96087.91;4973941;28;20133;-71
2020/12/21 02:49:56;;;;;;;10.65;9.65;;;;;;;6.39;67.20;96101.44;4982975;28;20381;-70
2020/12/21 02:52:21;;;;;;;11.05;10.00;;;;;;;6.33;66.99;96089.22;4983930;28;20117;-71
2020/12/21 02:54:47;;;;;;;9.95;8.88;;;;;;;6.42;67.34;96095.66;4971136;28;20105;-71
2020/12/21 02:57:13;;;;;;;10.40;9.40;;;;;;;6.39;67.17;96093.50;4972170;28;20039;-72
2020/12/21 02:59:39;;;;;;;10.85;9.82;;;;;;;6.32;67.43;96095.56;4971370;28;20046;-71
2020/12/21 03:02:04;;;;;;;10.43;9.43;;;;;;;6.32;67.08;96085.81;4971152;28;20042;-71
2020/12/21 03:04:29;;;;;;;10.35;9.35;;;;;;;6.31;67.29;96081.56;4978170;28;20054;-71
2020/12/21 03:06:55;;;;;;;11.00;9.90;;;;;;;6.30;67.73;96073.91;4990794;28;20514;-71
2020/12/21 03:09:20;;;;;;;11.60;10.43;;;;;;;6.40;68.25;96098.56;4992543;28;20030;-71
2020/12/21 03:11:46;;;;;;;11.13;10.13;;;;;;;6.44;67.72;96093.53;4990462;28;20042;-71
2020/12/21 03:14:12;;;;;;;11.35;10.25;;;;;;;6.38;68.30;96086.63;4990605;28;20395;-71
2020/12/21 03:16:37;;;;;;;11.50;10.40;;;;;;;6.39;68.62;96091.66;4990363;28;20124;-72
2020/12/21 03:19:02;;;;;;;10.35;9.32;;;;;;;6.50;68.70;96106.56;4984707;28;20042;-72
2020/12/21 03:21:28;;;;;;;10.68;9.05;;;;;;;6.49;68.22;96098.84;4971546;28;20074;-71
2020/12/21 03:23:53;;;;;;;12.05;10.00;;;;;;;6.50;68.23;96103.13;4969930;28;20133;-71
2020/12/21 03:26:18;;;;;;;12.57;10.10;;;;;;;6.43;68.24;96084.03;4971103;28;20038;-71
2020/12/21 03:28:44;;;;;;;11.13;10.02;;;;;;;6.58;68.50;96105.28;4970501;28;20121;-72
2020/12/21 03:31:09;;;;;;;10.43;9.52;;;;;;;6.62;68.49;96100.28;4975810;28;20038;-71
2020/12/21 03:33:34;;;;;;;12.13;10.95;;;;;;;6.50;68.89;96079.34;4988363;28;20022;-71
2020/12/21 03:36:00;;;;;;;11.13;10.13;;;;;;;6.61;68.52;96088.13;4973031;28;20027;-71
2020/12/21 03:38:25;;;;;;;15.27;12.07;;;;;;;6.70;68.12;96090.00;4969446;28;20039;-71
2020/12/21 03:40:50;;;;;;;11.52;10.32;;;;;;;6.68;68.80;96097.41;4981559;28;20471;-72
2020/12/21 03:43:19;;;;;;;12.50;10.30;;;;;;;6.67;69.09;96084.44;4988727;28;20047;-71
2020/12/21 03:45:45;;;;;;;12.75;11.40;;;;;;;6.66;68.99;96083.66;4989323;28;20030;-71
2020/12/21 03:48:12;;;;;;;11.13;10.00;;;;;;;6.58;68.15;96081.47;4992007;28;20026;-71
2020/12/21 03:50:37;;;;;;;11.65;10.55;;;;;;;6.40;69.87;96084.53;4989943;28;20053;-71
2020/12/21 03:53:02;;;;;;;11.98;10.85;;;;;;;6.49;70.06;96096.22;4977498;28;20046;-71
2020/12/21 03:55:28;;;;;;;11.32;10.13;;;;;;;6.53;70.39;96088.59;4978371;28;20121;-73
2020/12/21 03:57:53;;;;;;;10.93;9.82;;;;;;;6.45;70.42;96092.50;4989752;28;20084;-71
2020/12/21 04:00:19;;;;;;;11.95;10.68;;;;;;;6.30;70.81;96087.13;4991709;28;20027;-70
2020/12/21 04:02:44;;;;;;;12.32;10.95;;;;;;;6.41;71.27;96084.28;4989721;28;20100;-70
2020/12/21 04:05:09;;;;;;;13.85;10.75;;;;;;;6.29;70.84;96075.72;4975700;28;20125;-69
2020/12/21 04:07:38;;;;;;;13.00;11.57;;;;;;;6.36;70.96;96091.38;4979239;28;20129;-70
2020/12/21 04:10:06;;;;;;;12.52;11.23;;;;;;;6.33;70.78;96089.22;4989551;28;20069;-70
2020/12/21 04:12:32;;;;;;;11.93;10.50;;;;;;;6.41;71.22;96081.66;4989397;28;20026;-70
2020/12/21 04:14:57;;;;;;;11.90;10.73;;;;;;;6.54;70.46;96080.38;4972510;28;20354;-69
2020/12/21 04:17:22;;;;;;;12.48;11.20;;;;;;;6.65;70.56;96075.97;4985299;28;20050;-72
2020/12/21 04:19:47;;;;;;;13.38;11.65;;;;;;;6.67;70.86;96076.53;4989807;28;20045;-70
2020/12/21 04:22:13;;;;;;;12.43;10.60;;;;;;;6.73;70.94;96080.78;4984066;28;20059;-74
2020/12/21 04:24:38;;;;;;;13.23;12.00;;;;;;;6.85;70.77;96091.94;4971970;28;20117;-71
2020/12/21 04:27:03;;;;;;;11.77;10.63;;;;;;;6.87;70.18;96081.91;4991933;28;20034;-71
2020/12/21 04:29:28;;;;;;;10.85;9.85;;;;;;;6.87;69.84;96067.91;4973727;28;20035;-72
2020/12/21 04:31:57;;;;;;;11.57;10.48;;;;;;;6.92;70.27;96062.63;4968580;28;20505;-70
2020/12/21 04:34:26;;;;;;;11.93;10.73;;;;;;;7.01;69.57;96074.28;4970224;28;20035;-70
2020/12/21 04:36:52;;;;;;;17.00;12.20;;;;;;;7.01;69.41;96066.34;4972781;28;20559;-70
2020/12/21 04:39:17;;;;;;;10.93;9.82;;;;;;;6.89;70.07;96041.97;4991053;28;20387;-70
2020/12/21 04:41:54;;;;;;;12.15;10.95;;;;;;;6.80;69.19;96035.59;4988809;28;20050;-70
2020/12/21 04:44:20;;;;;;;14.13;12.48;;;;;;;7.02;69.73;96065.31;4975077;28;20500;-70
2020/12/21 04:46:46;;;;;;;13.00;10.90;;;;;;;7.07;69.22;96072.50;4979920;28;20046;-70
2020/12/21 04:49:14;;;;;;;12.43;11.23;;;;;;;6.91;69.38;96050.44;4983499;28;20035;-70
2020/12/21 04:51:40;;;;;;;14.60;13.07;;;;;;;7.07;69.07;96068.00;4970788;28;20202;-71
2020/12/21 04:54:08;;;;;;;12.35;11.13;;;;;;;7.15;69.97;96079.91;4991195;28;20142;-70
2020/12/21 04:56:35;;;;;;;13.70;11.75;;;;;;;7.05;69.71;96072.72;4972700;28;20051;-70
2020/12/21 04:59:00;;;;;;;15.27;12.02;;;;;;;7.10;69.95;96079.91;4981575;28;20043;-71
2020/12/21 05:01:25;;;;;;;12.35;11.07;;;;;;;7.12;70.25;96075.16;4981265;28;20055;-70
2020/12/21 05:03:51;;;;;;;15.60;13.48;;;;;;;7.14;70.28;96080.97;4971196;28;20047;-71
2020/12/21 05:06:16;;;;;;;12.18;10.95;;;;;;;7.16;70.29;96086.78;4991129;28;20027;-70
2020/12/21 05:08:41;;;;;;;16.17;11.75;;;;;;;7.04;70.54;96068.50;4971178;28;20547;-71
2020/12/21 05:11:07;;;;;;;12.63;11.43;;;;;;;7.16;69.86;96077.00;4981277;28;20464;-71
2020/12/21 05:13:33;;;;;;;15.70;14.00;;;;;;;7.17;70.32;96075.19;4988957;28;20085;-71
2020/12/21 05:16:00;;;;;;;12.75;11.45;;;;;;;7.21;70.32;96084.16;4988974;28;20496;-71
2020/12/21 05:18:30;;;;;;;16.48;12.13;;;;;;;7.19;70.34;96065.91;4994216;28;20738;-71
2020/12/21 05:21:00;;;;;;;14.88;12.20;;;;;;;7.27;70.39;96078.66;4992654;28;20396;-71
2020/12/21 05:23:26;;;;;;;17.98;12.50;;;;;;;7.34;69.90;96078.41;4975536;28;20074;-70
2020/12/21 05:26:09;;;;;;;12.95;11.65;;;;;;;7.30;69.97;96077.31;4983896;28;20511;-70
2020/12/21 05:28:37;;;;;;;18.38;12.52;;;;;;;7.30;69.57;96069.38;4992259;28;20043;-71
2020/12/21 05:31:11;;;;;;;12.82;11.02;;;;;;;7.38;69.89;96068.91;4992707;28;20035;-70
2020/12/21 05:33:45;;;;;;;12.80;10.93;;;;;;;7.39;69.62;96057.25;4990433;28;20418;-70
2020/12/21 05:36:15;;;;;;;16.08;12.98;;;;;;;7.27;69.63;96038.16;4975015;28;20614;-70
2020/12/21 05:38:41;;;;;;;14.55;11.80;;;;;;;7.19;69.99;96050.03;4972831;28;20041;-70
2020/12/21 05:41:08;;;;;;;17.35;13.60;;;;;;;7.21;70.99;96063.00;4985609;28;20084;-70
2020/12/21 05:43:36;;;;;;;17.35;12.75;;;;;;;7.21;70.32;96053.19;4991079;28;20039;-70
2020/12/21 05:46:13;;;;;;;11.57;10.38;;;;;;;7.23;70.96;96047.69;4988254;28;20074;-71
2020/12/21 05:48:46;;;;;;;13.18;11.73;;;;;;;7.31;70.53;96055.09;4972507;28;20030;-71
2020/12/21 05:51:20;;;;;;;12.63;10.82;;;;;;;7.33;70.65;96054.84;4974582;28;20031;-71
2020/12/21 05:53:46;;;;;;;12.75;11.43;;;;;;;7.30;70.06;96034.97;4972854;28;20041;-71
2020/12/21 05:56:11;;;;;;;17.30;13.68;;;;;;;7.27;70.24;96028.38;4986254;28;20038;-70
2020/12/21 05:58:39;;;;;;;16.33;12.20;;;;;;;7.33;70.58;96038.97;4990342;28;20041;-71
2020/12/21 06:01:06;;;;;;;11.57;10.50;;;;;;;7.33;70.87;96031.81;4992138;28;20069;-70
2020/12/21 06:03:40;;;;;;;17.67;12.85;;;;;;;7.27;70.21;96031.03;4991768;28;20034;-70
2020/12/21 06:06:09;;;;;;;15.43;12.60;;;;;;;7.14;70.69;96028.84;4993878;28;20109;-72
2020/12/21 06:08:36;;;;;;;13.60;12.20;;;;;;;7.06;70.77;96020.63;4975114;28;20507;-70
2020/12/21 06:11:31;;;;;;;19.80;13.80;;;;;;;7.14;71.21;96028.84;4983490;28;20048;-70
2020/12/21 06:14:08;;;;;;;15.90;13.30;;;;;;;7.12;70.74;96019.59;4987063;28;20093;-73
2020/12/21 06:16:36;;;;;;;14.35;12.95;;;;;;;6.97;70.59;96004.47;4983092;28;20484;-69
2020/12/21 06:19:05;;;;;;;18.23;14.75;;;;;;;6.64;70.49;95961.50;4974742;28;20041;-70
2020/12/21 06:21:33;;;;;;;16.70;14.55;;;;;;;6.68;71.32;95996.94;4993398;28;20093;-70
2020/12/21 06:23:59;;;;;;;19.92;15.07;;;;;;;6.58;71.60;95996.09;4991781;28;20034;-73
2020/12/21 06:26:37;;;;;;;22.40;16.25;;;;;;;6.18;71.87;95960.47;4991363;28;20527;-69
2020/12/21 06:29:24;;;;;;;18.60;15.25;;;;;;;6.22;72.89;95998.53;4977032;28;20039;-69
2020/12/21 06:31:51;;;;;;;23.08;17.63;;;;;;;6.11;72.68;96007.47;4970465;28;20070;-71
2020/12/21 06:34:18;;;;;;;41.53;21.98;;;;;;;5.97;73.71;96004.44;4978090;28;20042;-70
2020/12/21 06:36:46;;;;;;;34.72;21.50;;;;;;;5.39;74.06;95937.44;4990580;28;20107;-72
2020/12/21 06:39:24;;;;;;;42.42;21.40;;;;;;;5.73;73.87;96002.13;4993175;28;20031;-71
2020/12/21 06:42:10;;;;;;;33.30;19.50;;;;;;;5.60;74.08;96017.59;4969271;28;20408;-72
2020/12/21 06:44:39;;;;;;;31.95;20.35;;;;;;;5.35;75.89;96029.47;4988451;28;20055;-70
2020/12/21 06:47:06;;;;;;;54.20;26.38;;;;;;;5.26;77.11;96012.50;4992377;28;20050;-69
2020/12/21 06:49:32;;;;;;;57.20;26.52;;;;;;;5.26;76.57;96015.13;4983740;28;20519;-72
2020/12/21 06:51:57;;;;;;;36.03;20.90;;;;;;;5.13;76.59;96013.69;4976241;28;20034;-75
2020/12/21 06:54:23;;;;;;;33.03;19.67;;;;;;;5.07;76.46;96012.06;4993836;28;20057;-68
2020/12/21 06:56:50;;;;;;;30.73;20.55;;;;;;;5.04;76.55;96020.47;4991965;28;20388;-72
2020/12/21 06:59:18;;;;;;;37.22;21.90;;;;;;;5.14;77.14;96030.31;4991329;28;20499;-71
2020/12/21 07:01:45;;;;;;;39.30;22.48;;;;;;;5.19;76.85;96040.94;4991817;28;20042;-72
2020/12/21 07:04:15;;;;;;;31.77;20.60;;;;;;;5.15;76.98;96026.63;4990684;28;20105;-72
2020/12/21 07:06:41;;;;;;;42.58;23.83;;;;;;;5.19;76.48;96027.75;4990191;28;20026;-71
2020/12/21 07:09:08;;;;;;;39.47;23.45;;;;;;;5.27;76.38;96027.28;4974779;28;20053;-79
2020/12/21 07:11:34;;;;;;;27.65;18.20;;;;;;;5.33;75.85;96030.78;4972739;28;20535;-80
2020/12/21 07:13:59;;;;;;;49.55;24.83;;;;;;;5.42;76.43;96034.56;4984718;28;20396;-73
2020/12/21 07:16:25;;;;;;;45.33;23.52;;;;;;;5.50;76.11;96046.53;4984262;28;20039;-71
2020/12/21 07:18:51;;;;;;;42.20;23.05;;;;;;;5.39;76.00;96017.41;4974458;28;20027;-72
2020/12/21 07:21:16;;;;;;;42.45;21.40;;;;;;;5.58;76.30;96040.78;4992964;28;20053;-73
2020/12/21 07:23:43;;;;;;;51.72;25.88;;;;;;;5.60;76.47;96026.28;4991649;28;20431;-74
2020/12/21 07:26:11;;;;;;;42.83;23.73;;;;;;;5.53;75.43;96009.88;4978466;28;20123;-74
2020/12/21 07:28:37;;;;;;;49.13;24.45;;;;;;;5.54;75.90;96008.81;4971938;28;20526;-75
2020/12/21 07:31:11;;;;;;;36.42;22.15;;;;;;;5.58;75.97;96009.94;4971819;28;20042;-73
2020/12/21 07:33:59;;;;;;;42.40;23.92;;;;;;;5.58;75.88;96009.94;4972277;28;20484;-68
2020/12/21 07:36:30;;;;;;;52.20;26.50;;;;;;;5.61;75.60;96025.25;4993551;28;20118;-72
2020/12/21 07:39:14;;;;;;;32.80;20.75;;;;;;;5.56;76.28;96038.38;4971955;28;20031;-68
2020/12/21 07:41:43;;;;;;;48.53;25.67;;;;;;;5.53;75.92;96052.09;4978648;28;20043;-73
2020/12/21 07:44:14;;;;;;;29.35;19.05;;;;;;;5.38;76.42;96036.91;4978094;28;20043;-72
2020/12/21 07:46:44;;;;;;;28.13;19.63;;;;;;;5.37;76.65;96060.88;4982057;28;20035;-76
2020/12/21 07:49:11;;;;;;;34.65;22.90;;;;;;;5.39;76.91;96032.44;4976506;28;20290;-80
2020/12/21 07:51:41;;;;;;;27.10;19.23;;;;;;;5.56;76.39;96040.25;4972449;28;20569;-77
2020/12/21 07:54:07;;;;;;;31.95;20.48;;;;;;;5.68;76.98;96049.59;4974009;28;20057;-76
2020/12/21 07:56:33;;;;;;;34.63;21.58;;;;;;;5.77;76.40;96033.28;4972112;28;20117;-69
2020/12/21 07:58:58;;;;;;;25.77;19.17;;;;;;;5.71;76.27;96003.41;4966258;28;20118;-75
2020/12/21 08:01:23;;;;;;;19.90;15.85;;;;;;;5.55;77.08;96046.56;4971373;28;20142;-76
2020/12/21 08:03:53;;;;;;;20.17;15.63;;;;;;;5.00;79.67;96024.63;4971071;28;20027;-74
2020/12/21 08:06:23;;;;;;;16.52;14.55;;;;;;;5.80;78.70;96075.03;4972565;28;20027;-73
2020/12/21 08:08:50;;;;;;;18.60;13.75;;;;;;;5.88;78.19;96061.38;4972255;28;20110;-77
2020/12/21 08:11:17;;;;;;;23.10;16.92;;;;;;;6.25;78.08;96061.44;4971433;28;20074;-78
2020/12/21 08:13:47;;;;;;;16.48;14.45;;;;;;;6.57;76.06;96052.66;4972405;28;20086;-79
2020/12/21 08:16:13;;;;;;;14.73;12.25;;;;;;;6.58;75.25;96039.19;4972435;28;20031;-76
2020/12/21 08:18:38;;;;;;;14.98;12.88;;;;;;;6.86;74.84;96050.41;4972159;28;20607;-80
2020/12/21 08:21:04;;;;;;;14.43;12.57;;;;;;;7.04;73.45;96044.69;4974350;28;20019;-82
2020/12/21 08:23:31;;;;;;;14.68;12.30;;;;;;;6.72;73.20;96035.03;4972232;28;20504;-79
2020/12/21 08:25:57;;;;;;;18.38;14.43;;;;;;;6.93;73.42;96028.00;4970899;28;20066;-80
2020/12/21 08:28:36;;;;;;;12.98;11.70;;;;;;;7.13;73.44;96024.63;4970839;28;20070;-73
2020/12/21 08:31:07;;;;;;;15.77;12.25;;;;;;;7.42;73.35;96045.31;4971067;28;20078;-75
2020/12/21 08:33:35;;;;;;;11.98;10.75;;;;;;;6.99;72.51;96018.22;4971008;28;20035;-80
2020/12/21 08:36:22;;;;;;;13.38;12.00;;;;;;;7.54;71.77;96033.44;4974496;28;20030;-85
2020/12/21 08:38:49;;;;;;;13.25;11.07;;;;;;;7.67;71.84;96029.47;4971192;28;20039;-77
2020/12/21 08:41:15;;;;;;;13.75;12.32;;;;;;;7.74;71.02;96022.09;4970760;28;20521;-72
2020/12/21 08:43:40;;;;;;;16.33;13.90;;;;;;;7.79;71.06;96000.13;4970927;28;20035;-72
2020/12/21 08:46:07;;;;;;;13.23;11.80;;;;;;;8.10;70.28;96029.25;4969758;28;20035;-71
2020/12/21 08:48:36;;;;;;;13.13;11.70;;;;;;;8.20;70.41;96026.59;4970517;28;20031;-71
2020/12/21 08:51:02;;;;;;;14.65;12.82;;;;;;;8.34;69.81;96028.44;4972582;28;20023;-72
2020/12/21 08:53:27;;;;;;;16.83;13.05;;;;;;;8.40;69.70;96023.94;4974487;28;20043;-72
2020/12/21 08:55:52;;;;;;;16.35;13.85;;;;;;;8.54;69.64;96032.91;4974649;28;20125;-73
2020/12/21 08:58:18;;;;;;;15.02;13.48;;;;;;;8.26;69.50;95975.97;4973721;28;20488;-80
2020/12/21 09:00:43;;;;;;;14.73;12.77;;;;;;;8.24;68.63;95958.72;4972806;28;20031;-77
2020/12/21 09:03:08;;;;;;;15.07;13.13;;;;;;;8.72;68.77;96020.94;4976163;28;20034;-74
2020/12/21 09:05:36;;;;;;;13.73;12.30;;;;;;;8.69;68.62;95999.47;4974611;28;20057;-71
2020/12/21 09:08:01;;;;;;;14.15;12.75;;;;;;;8.66;68.20;95986.75;4973288;28;20035;-71
2020/12/21 09:10:27;;;;;;;12.65;11.45;;;;;;;8.82;68.05;96017.47;4973787;28;20117;-70
2020/12/21 09:12:52;;;;;;;14.43;13.00;;;;;;;8.73;68.01;96003.19;4973683;28;20046;-71
2020/12/21 09:15:17;;;;;;;12.85;11.45;;;;;;;9.04;67.85;96031.19;4976557;28;20034;-71
2020/12/21 09:17:43;;;;;;;14.77;12.55;;;;;;;9.17;67.87;96032.47;4974210;28;20094;-72
2020/12/21 09:20:08;;;;;;;13.02;11.88;;;;;;;9.26;67.36;96030.81;4974024;28;20460;-71
2020/12/21 09:22:33;;;;;;;13.30;11.60;;;;;;;9.19;66.99;96014.38;4973956;28;20098;-70
2020/12/21 09:24:58;;;;;;;11.05;9.95;;;;;;;9.27;67.26;96021.00;4968949;28;20452;-70
2020/12/21 09:27:24;;;;;;;13.30;8.73;;;;;;;9.28;67.13;96007.44;4973991;28;20097;-71
2020/12/21 09:29:49;;;;;;;9.40;8.52;;;;;;;9.41;66.93;96003.38;4963872;28;20524;-71
2020/12/21 09:32:14;;;;;;;9.48;8.55;;;;;;;9.43;66.07;95990.63;4966592;28;20066;-70
2020/12/21 09:34:39;;;;;;;12.82;9.70;;;;;;;9.78;66.69;96029.47;4974010;28;20078;-71
2020/12/21 09:37:05;;;;;;;8.60;7.20;;;;;;;9.69;65.67;96011.72;4974149;28;20094;-72
2020/12/21 09:39:30;;;;;;;8.68;7.88;;;;;;;9.70;65.52;95992.84;4975839;28;20034;-72
2020/12/21 09:41:56;;;;;;;8.07;7.30;;;;;;;9.37;65.10;95939.44;4973719;28;20078;-72
2020/12/21 09:44:21;;;;;;;8.52;7.28;;;;;;;9.82;65.18;95987.94;4973718;28;20102;-71
2020/12/21 09:46:51;;;;;;;8.90;7.68;;;;;;;10.02;65.10;95996.84;4972647;28;20027;-71
2020/12/21 09:49:16;;;;;;;8.43;7.72;;;;;;;10.07;64.80;95994.13;4973542;28;20433;-72
2020/12/21 09:51:42;;;;;;;7.63;6.93;;;;;;;9.96;64.63;95960.75;4967188;28;20126;-71
2020/12/21 09:54:07;;;;;;;9.13;7.70;;;;;;;10.08;64.30;95972.63;4972350;28;20038;-71
2020/12/21 09:56:32;;;;;;;8.18;7.47;;;;;;;10.01;64.70;95950.06;4973749;28;20050;-71
2020/12/21 09:58:57;;;;;;;7.57;6.88;;;;;;;10.08;64.12;95961.97;4974858;28;20101;-72
2020/12/21 10:01:28;;;;;;;8.00;7.20;;;;;;;10.16;63.79;95945.41;4972788;28;20039;-71
2020/12/21 10:03:53;;;;;;;8.40;7.63;;;;;;;10.33;64.33;95955.63;4970964;28;20042;-72
2020/12/21 10:06:18;;;;;;;8.07;7.28;;;;;;;10.28;64.18;95922.97;4973482;28;20031;-71
2020/12/21 10:08:44;;;;;;;7.10;6.43;;;;;;;10.23;62.83;95918.47;4971576;28;20433;-71
2020/12/21 10:11:09;;;;;;;6.75;6.05;;;;;;;10.36;63.18;95920.50;4975272;28;20081;-70
2020/12/21 10:13:35;;;;;;;7.45;6.82;;;;;;;10.29;63.45;95912.06;4973226;28;20039;-72
2020/12/21 10:16:00;;;;;;;7.25;6.55;;;;;;;10.53;63.41;95928.00;4973322;28;20041;-71
2020/12/21 10:18:26;;;;;;;7.65;6.88;;;;;;;10.73;62.77;95950.16;4972961;28;20400;-73
2020/12/21 10:20:52;;;;;;;6.47;5.88;;;;;;;10.63;62.70;95922.56;4971574;28;20047;-73
2020/12/21 10:23:17;;;;;;;6.43;5.82;;;;;;;10.81;62.46;95945.00;4973957;28;20029;-76
2020/12/21 10:25:43;;;;;;;6.30;5.55;;;;;;;10.83;62.63;95921.53;4993011;28;20027;-76
2020/12/21 10:28:08;;;;;;;8.40;5.47;;;;;;;10.88;61.96;95937.44;4973142;28;20492;-76
2020/12/21 10:30:33;;;;;;;5.85;5.28;;;;;;;10.92;62.49;95914.50;4972143;28;20057;-73
2020/12/21 10:33:01;;;;;;;6.63;6.03;;;;;;;11.27;61.32;95947.03;4973321;28;20063;-75
2020/12/21 10:35:26;;;;;;;5.85;5.35;;;;;;;11.42;61.48;95944.16;4973765;28;20085;-72
2020/12/21 10:37:52;;;;;;;5.93;5.32;;;;;;;11.41;60.08;95944.44;4974438;28;20444;-74
2020/12/21 10:40:17;;;;;;;6.10;5.50;;;;;;;11.55;60.62;95928.50;4973682;28;20053;-79
2020/12/21 10:42:42;;;;;;;7.22;5.95;;;;;;;11.54;60.97;95910.94;4974381;28;20140;-72
2020/12/21 10:45:08;;;;;;;6.13;5.53;;;;;;;11.47;60.21;95895.34;4972460;28;20042;-75
2020/12/21 10:47:33;;;;;;;6.47;5.38;;;;;;;11.54;60.07;95892.31;4974648;28;20065;-75
2020/12/21 10:49:59;;;;;;;6.25;5.68;;;;;;;11.64;59.51;95894.81;4975083;28;20469;-78
2020/12/21 10:52:25;;;;;;;12.15;6.68;;;;;;;11.64;60.21;95905.47;4973263;28;20035;-67
2020/12/21 10:54:50;;;;;;;8.43;7.10;;;;;;;11.64;60.68;95929.44;4973064;28;20408;-78
2020/12/21 10:57:15;;;;;;;5.90;5.28;;;;;;;11.90;60.35;95933.31;4960894;28;20420;-71
2020/12/21 10:59:41;;;;;;;5.97;5.47;;;;;;;11.91;60.10;95924.22;4964025;28;20066;-79
2020/12/21 11:02:06;;;;;;;6.93;6.22;;;;;;;12.05;59.67;95929.59;4973161;28;20121;-75
2020/12/21 11:04:31;;;;;;;7.03;6.43;;;;;;;12.08;58.86;95925.53;4973030;28;20043;-72
2020/12/21 11:06:57;;;;;;;6.63;5.78;;;;;;;12.16;58.71;95922.97;4973251;28;20098;-74
2020/12/21 11:09:22;;;;;;;7.53;6.53;;;;;;;12.04;58.98;95895.22;4972504;28;20119;-75
2020/12/21 11:11:48;;;;;;;7.70;6.57;;;;;;;12.18;58.89;95923.50;4986309;28;20038;-75
2020/12/21 11:14:13;;;;;;;8.45;6.28;;;;;;;12.03;58.23;95914.94;4972942;28;20490;-74
2020/12/21 11:16:38;;;;;;;7.60;7.00;;;;;;;11.94;58.93;95912.19;4973487;28;20570;-76
2020/12/21 11:19:04;;;;;;;7.35;6.65;;;;;;;12.05;58.72;95923.47;4973000;28;20035;-78
2020/12/21 11:21:35;;;;;;;10.15;8.35;;;;;;;11.89;61.02;95910.41;4972060;28;20054;-67
2020/12/21 11:24:01;;;;;;;8.27;6.63;;;;;;;11.57;60.92;95921.03;4971970;28;20493;-66
2020/12/21 11:26:26;;;;;;;7.32;6.63;;;;;;;11.36;60.14;95918.69;4970750;28;20096;-66
2020/12/21 11:28:51;;;;;;;7.80;6.95;;;;;;;11.21;60.35;95924.25;4972961;28;20026;-66